Time;durP1;ratioP1;P1;durP2;ratioP2;P2;SDS_P1;SDS_P2;PMS_P1;PMS_P2;Temp;Humidity;BMP_temperature;BMP_pressure;BME280_temperature;BME280_humidity;BME280_pressure;Samples;Min_cycle;Max_cycle;Signal;HPM_P1;HPM_P2
2023/06/12 00:00:12;;;;;;;3.47;2.05;;;;;;;20.44;58.76;101875.63;6192842;28;20530;-72
2023/06/12 00:03:34;;;;;;;4.18;2.80;;;;;;;20.27;59.09;101866.59;6195181;28;20233;-72
2023/06/12 00:06:56;;;;;;;2.70;2.35;;;;;;;20.29;59.08;101864.53;6193064;28;20252;-72
2023/06/12 00:10:17;;;;;;;4.15;2.65;;;;;;;20.28;59.23;101865.56;6191035;28;20556;-72
2023/06/12 00:13:39;;;;;;;3.13;2.78;;;;;;;20.15;58.56;101869.84;6195637;28;20257;-72
2023/06/12 00:17:00;;;;;;;2.75;2.00;;;;;;;20.03;59.29;101865.75;6196927;28;20818;-72
2023/06/12 00:20:21;;;;;;;3.55;2.90;;;;;;;20.15;59.61;101859.72;6194060;28;20228;-71
2023/06/12 00:23:42;;;;;;;4.72;3.10;;;;;;;20.10;59.50;101861.28;6185493;28;20614;-72
2023/06/12 00:27:06;;;;;;;3.05;2.45;;;;;;;19.99;59.71;101861.63;6195822;28;20245;-72
2023/06/12 00:30:28;;;;;;;6.22;2.42;;;;;;;19.90;59.37;101852.63;6195487;28;20249;-72
2023/06/12 00:33:52;;;;;;;3.38;2.47;;;;;;;19.86;60.22;101851.22;6187490;28;20233;-71
2023/06/12 00:37:14;;;;;;;3.15;2.42;;;;;;;19.75;59.98;101857.94;6220010;28;20264;-73
2023/06/12 00:40:34;;;;;;;2.75;2.22;;;;;;;19.80;60.21;101860.97;6200782;28;20225;-71
2023/06/12 00:43:55;;;;;;;4.07;2.20;;;;;;;19.72;60.02;101860.13;6198925;28;20254;-71
2023/06/12 00:47:18;;;;;;;3.90;2.20;;;;;;;19.61;60.08;101847.66;6208126;28;20536;-72
2023/06/12 00:50:41;;;;;;;4.05;2.03;;;;;;;19.60;60.25;101854.16;6193215;28;20240;-71
2023/06/12 00:54:02;;;;;;;3.25;2.53;;;;;;;19.56;60.15;101851.94;6194808;28;20727;-70
2023/06/12 00:57:23;;;;;;;10.77;2.28;;;;;;;19.53;60.51;101852.25;6184771;28;20245;-71
2023/06/12 01:00:44;;;;;;;4.10;2.75;;;;;;;19.57;60.33;101848.16;6185162;28;20238;-71
2023/06/12 01:04:09;;;;;;;3.08;1.98;;;;;;;19.62;60.45;101848.50;6192079;28;20233;-71
2023/06/12 01:07:43;;;;;;;2.35;2.15;;;;;;;19.51;60.04;101851.56;6207568;28;20241;-71
2023/06/12 01:11:06;;;;;;;4.82;2.40;;;;;;;19.52;60.24;101851.44;6189050;28;20256;-70
2023/06/12 01:14:27;;;;;;;2.50;2.20;;;;;;;19.56;60.24;101846.47;6185684;28;20234;-72
2023/06/12 01:17:48;;;;;;;2.90;2.60;;;;;;;19.50;59.98;101844.41;6154974;28;20627;-72
2023/06/12 01:21:17;;;;;;;3.63;2.63;;;;;;;19.46;60.03;101846.59;6186691;28;20237;-72
2023/06/12 01:25:07;;;;;;;2.50;2.22;;;;;;;19.48;59.76;101843.72;6195393;28;20637;-71
2023/06/12 01:28:52;;;;;;;3.17;2.88;;;;;;;19.52;60.27;101845.09;6200330;28;21407;-71
2023/06/12 01:32:16;;;;;;;4.13;2.13;;;;;;;19.45;60.05;101839.44;6184601;28;20245;-71
2023/06/12 01:35:43;;;;;;;3.83;2.45;;;;;;;19.40;60.17;101841.81;6204056;28;20917;-71
2023/06/12 01:39:07;;;;;;;2.58;2.20;;;;;;;19.29;60.63;101839.41;6204127;28;20253;-72
2023/06/12 01:42:30;;;;;;;3.58;2.58;;;;;;;19.24;60.30;101835.44;6189913;28;23210;-72
2023/06/12 01:45:51;;;;;;;2.95;1.75;;;;;;;19.23;60.58;101831.88;6209252;28;20323;-71
2023/06/12 01:49:14;;;;;;;4.32;2.85;;;;;;;19.33;60.59;101835.31;6206138;28;20232;-72
2023/06/12 01:52:35;;;;;;;6.40;2.55;;;;;;;19.34;60.57;101834.28;6190712;28;20711;-71
2023/06/12 01:55:57;;;;;;;3.80;2.40;;;;;;;19.28;60.78;101837.69;6200427;28;20229;-71
2023/06/12 01:59:20;;;;;;;3.30;2.45;;;;;;;19.17;60.96;101827.06;6209690;28;20239;-71
2023/06/12 02:02:42;;;;;;;2.50;2.15;;;;;;;19.23;60.75;101829.16;6205006;28;20791;-71
2023/06/12 02:06:04;;;;;;;2.75;2.13;;;;;;;19.10;61.03;101821.44;6208888;28;20237;-71
2023/06/12 02:09:25;;;;;;;3.08;1.90;;;;;;;19.11;61.11;101825.00;6211127;28;20243;-71
2023/06/12 02:12:47;;;;;;;2.28;2.08;;;;;;;18.91;61.19;101827.19;6187107;28;20252;-71
2023/06/12 02:16:08;;;;;;;2.78;2.15;;;;;;;18.83;61.54;101829.06;6193985;28;20718;-72
2023/06/12 02:19:29;;;;;;;4.10;2.33;;;;;;;18.84;61.50;101823.41;6210953;28;20248;-71
2023/06/12 02:22:51;;;;;;;3.28;2.83;;;;;;;18.73;61.75;101826.44;6196048;28;20636;-71
2023/06/12 02:26:12;;;;;;;1.98;1.88;;;;;;;18.91;61.51;101821.72;6198957;28;20236;-71
2023/06/12 02:29:33;;;;;;;4.43;2.42;;;;;;;18.92;61.70;101825.31;6202666;28;20288;-70
2023/06/12 02:32:54;;;;;;;2.58;2.35;;;;;;;18.84;61.53;101822.53;6184403;28;20225;-70
2023/06/12 02:36:16;;;;;;;2.58;1.98;;;;;;;18.83;61.82;101832.66;6186128;28;20233;-70
2023/06/12 02:39:38;;;;;;;2.92;2.15;;;;;;;18.81;61.66;101829.22;6200201;28;20272;-71
2023/06/12 02:42:59;;;;;;;4.90;2.97;;;;;;;18.78;61.76;101832.28;6194998;28;20315;-71
2023/06/12 02:46:20;;;;;;;2.20;1.55;;;;;;;18.75;61.86;101832.63;6203032;28;20542;-72
2023/06/12 02:49:44;;;;;;;8.10;3.20;;;;;;;18.70;61.62;101834.13;6200257;28;20240;-71
2023/06/12 02:53:08;;;;;;;3.08;2.22;;;;;;;18.69;61.71;101837.88;6200538;28;20232;-71
2023/06/12 02:56:30;;;;;;;3.85;2.45;;;;;;;18.75;62.02;101829.88;6194516;28;20233;-71
2023/06/12 02:59:52;;;;;;;4.30;2.70;;;;;;;18.72;61.57;101840.28;6194982;28;20237;-70
2023/06/12 03:03:22;;;;;;;3.55;3.10;;;;;;;18.64;62.19;101838.38;6182110;28;20240;-71
2023/06/12 03:06:44;;;;;;;3.55;3.05;;;;;;;18.65;61.87;101840.06;6184665;28;20238;-71
2023/06/12 03:10:06;;;;;;;4.00;2.35;;;;;;;18.65;62.12;101840.06;6206367;28;20244;-71
2023/06/12 03:13:29;;;;;;;5.97;2.45;;;;;;;18.68;61.84;101847.09;6203679;28;20361;-71
2023/06/12 03:16:50;;;;;;;3.38;2.80;;;;;;;18.72;61.69;101840.28;6193601;28;20237;-71
2023/06/12 03:20:14;;;;;;;5.05;3.83;;;;;;;18.69;61.87;101841.44;6174198;28;20233;-71
2023/06/12 03:23:34;;;;;;;3.08;2.80;;;;;;;18.63;61.77;101844.00;6203616;28;20232;-71
2023/06/12 03:26:57;;;;;;;3.72;2.28;;;;;;;18.78;61.56;101843.19;6197783;28;20225;-71
2023/06/12 03:30:20;;;;;;;2.45;2.25;;;;;;;18.80;61.39;101845.75;6192425;28;20228;-72
2023/06/12 03:33:42;;;;;;;4.95;2.92;;;;;;;18.82;61.54;101841.84;6205472;28;20318;-70
2023/06/12 03:37:07;;;;;;;3.60;2.47;;;;;;;18.79;61.68;101849.53;6192926;28;20236;-72
2023/06/12 03:40:28;;;;;;;5.72;3.53;;;;;;;18.94;61.47;101839.69;6196822;28;20257;-71
2023/06/12 03:43:50;;;;;;;4.47;3.05;;;;;;;18.95;61.09;101844.97;6210559;28;20235;-72
2023/06/12 03:47:14;;;;;;;4.63;2.70;;;;;;;18.98;60.82;101849.25;6184879;28;20232;-71
2023/06/12 03:50:37;;;;;;;3.95;2.78;;;;;;;18.89;61.24;101851.09;6211991;28;20257;-71
2023/06/12 03:53:58;;;;;;;6.97;4.35;;;;;;;18.78;61.22;101850.53;6211852;28;20228;-71
2023/06/12 03:57:20;;;;;;;4.95;3.58;;;;;;;18.87;60.81;101855.00;6185820;28;20229;-71
2023/06/12 04:00:40;;;;;;;8.80;6.65;;;;;;;18.96;61.00;101849.41;6215783;28;20545;-71
2023/06/12 04:04:03;;;;;;;5.43;4.63;;;;;;;18.90;60.93;101849.22;6211143;28;20250;-71
2023/06/12 04:07:26;;;;;;;4.93;3.83;;;;;;;18.96;60.84;101851.31;6179939;28;20237;-71
2023/06/12 04:10:46;;;;;;;3.45;2.85;;;;;;;18.86;60.81;101853.28;6191380;28;20360;-71
2023/06/12 04:14:08;;;;;;;3.47;3.13;;;;;;;18.90;61.17;101844.59;6205936;28;20793;-71
2023/06/12 04:17:29;;;;;;;5.05;3.58;;;;;;;18.92;60.77;101855.38;6220217;28;20308;-71
2023/06/12 04:20:54;;;;;;;4.70;3.22;;;;;;;19.06;60.69;101854.75;6204366;28;20769;-71
2023/06/12 04:24:16;;;;;;;3.45;3.15;;;;;;;19.17;60.29;101852.53;6215313;28;20224;-70
2023/06/12 04:27:37;;;;;;;4.30;3.90;;;;;;;19.14;60.51;101852.88;6188389;28;20807;-71
2023/06/12 04:30:59;;;;;;;5.97;4.57;;;;;;;19.19;60.50;101854.25;6213015;28;20245;-71
2023/06/12 04:34:21;;;;;;;6.93;5.85;;;;;;;19.22;60.16;101856.63;6209359;28;20240;-71
2023/06/12 04:37:43;;;;;;;6.20;5.20;;;;;;;19.22;60.20;101852.03;6196721;28;20243;-71
2023/06/12 04:41:05;;;;;;;6.20;4.40;;;;;;;19.23;60.34;101856.50;6217249;28;20316;-71
2023/06/12 04:44:30;;;;;;;4.15;3.70;;;;;;;19.26;60.27;101850.66;6217439;28;20629;-71
2023/06/12 04:47:51;;;;;;;2.90;2.60;;;;;;;19.22;60.34;101856.63;6206947;28;20235;-71
2023/06/12 04:51:13;;;;;;;6.43;3.60;;;;;;;19.15;60.41;101854.56;6205170;28;20245;-71
2023/06/12 04:54:36;;;;;;;3.65;3.35;;;;;;;19.25;60.28;101854.44;6189938;28;20241;-70
2023/06/12 04:57:58;;;;;;;4.93;4.03;;;;;;;19.30;60.22;101849.31;6194306;28;20600;-73
2023/06/12 05:01:21;;;;;;;4.72;3.92;;;;;;;19.33;60.12;101854.44;6187675;28;20233;-70
2023/06/12 05:04:43;;;;;;;6.75;4.00;;;;;;;19.36;60.23;101859.59;6207664;28;20510;-71
2023/06/12 05:08:04;;;;;;;4.00;3.65;;;;;;;19.48;59.90;101860.13;6195613;28;20232;-71
2023/06/12 05:11:27;;;;;;;3.85;2.95;;;;;;;19.57;59.52;101865.44;6193832;28;20237;-71
2023/06/12 05:14:48;;;;;;;3.97;3.58;;;;;;;19.58;59.19;101864.41;6199898;28;20240;-70
2023/06/12 05:18:10;;;;;;;4.13;3.78;;;;;;;19.28;59.69;101865.03;6202275;28;20231;-70
2023/06/12 05:21:30;;;;;;;3.50;3.03;;;;;;;19.62;60.38;101868.53;6198026;28;20535;-70
2023/06/12 05:24:52;;;;;;;4.90;3.45;;;;;;;19.72;59.27;101871.94;6204069;28;20228;-71
2023/06/12 05:28:15;;;;;;;4.38;3.15;;;;;;;19.70;59.21;101864.91;6202005;28;20872;-70
2023/06/12 05:31:36;;;;;;;5.13;2.97;;;;;;;19.89;59.13;101873.66;6195053;28;20257;-70
2023/06/12 05:34:57;;;;;;;3.55;3.25;;;;;;;20.06;59.24;101871.75;6207123;28;20238;-69
2023/06/12 05:38:18;;;;;;;8.13;4.78;;;;;;;20.69;58.73;101863.56;6187399;28;20235;-70
2023/06/12 05:41:39;;;;;;;9.10;6.57;;;;;;;21.08;57.52;101866.28;6191717;28;20237;-70
2023/06/12 05:45:01;;;;;;;11.32;7.35;;;;;;;21.31;57.07;101870.78;6193697;28;21417;-71
2023/06/12 05:48:22;;;;;;;6.28;5.43;;;;;;;21.21;56.92;101866.56;6200541;28;20216;-71
2023/06/12 05:51:44;;;;;;;6.90;5.65;;;;;;;21.37;56.34;101859.06;6190234;28;20233;-74
2023/06/12 05:55:07;;;;;;;5.82;4.25;;;;;;;21.56;55.24;101867.84;6202068;28;20233;-72
2023/06/12 05:58:28;;;;;;;5.90;4.03;;;;;;;21.35;55.22;101866.63;6208771;28;20577;-71
2023/06/12 06:01:51;;;;;;;5.55;3.63;;;;;;;21.11;55.22;101872.25;6187011;28;20233;-70
2023/06/12 06:05:12;;;;;;;3.95;3.65;;;;;;;21.34;55.00;101872.31;6167887;28;20233;-72
2023/06/12 06:08:33;;;;;;;5.72;3.40;;;;;;;21.40;55.05;101877.91;6192747;28;20509;-71
2023/06/12 06:11:54;;;;;;;3.28;3.08;;;;;;;21.92;54.83;101877.19;6190156;28;20237;-71
2023/06/12 06:15:15;;;;;;;6.57;3.55;;;;;;;22.10;53.54;101883.19;6187210;28;20253;-70
2023/06/12 06:18:37;;;;;;;3.90;3.50;;;;;;;22.36;53.27;101878.13;6206187;28;20236;-72
2023/06/12 06:21:58;;;;;;;7.13;3.78;;;;;;;22.63;53.04;101888.50;6186477;28;20232;-72
2023/06/12 06:25:22;;;;;;;6.47;4.13;;;;;;;22.58;52.13;101882.72;6185429;28;20256;-72
2023/06/12 06:28:43;;;;;;;5.00;3.15;;;;;;;22.60;52.96;101890.75;6208143;28;20239;-72
2023/06/12 06:32:05;;;;;;;4.38;3.40;;;;;;;22.42;51.68;101891.13;6187449;28;20324;-71
2023/06/12 06:35:30;;;;;;;4.18;3.72;;;;;;;22.25;51.08;101897.81;6186132;28;20622;-71
2023/06/12 06:38:52;;;;;;;5.97;3.38;;;;;;;22.50;52.09;101893.75;6213272;28;20228;-70
2023/06/12 06:42:13;;;;;;;4.47;3.38;;;;;;;22.59;51.28;101887.16;6178984;28;20229;-71
2023/06/12 06:45:57;;;;;;;4.20;3.25;;;;;;;22.56;51.25;101889.41;6199037;28;20287;-71
2023/06/12 06:49:17;;;;;;;3.58;3.25;;;;;;;22.70;50.75;101891.31;6217947;28;20227;-72
2023/06/12 06:52:41;;;;;;;4.88;3.95;;;;;;;22.59;49.95;101900.06;6202621;28;20247;-73
2023/06/12 06:56:03;;;;;;;4.57;4.10;;;;;;;22.63;49.96;101896.75;6203768;28;20229;-72
2023/06/12 06:59:24;;;;;;;4.43;3.33;;;;;;;22.94;49.47;101900.13;6217670;28;20315;-75
2023/06/12 07:02:45;;;;;;;5.55;3.90;;;;;;;22.87;49.18;101901.06;6191385;28;20246;-72
2023/06/12 07:06:08;;;;;;;4.70;3.28;;;;;;;22.89;49.36;101896.22;6208253;28;20236;-72
2023/06/12 07:09:30;;;;;;;4.75;3.90;;;;;;;23.37;48.87;101897.50;6202185;28;20248;-70
2023/06/12 07:12:56;;;;;;;4.78;3.33;;;;;;;23.34;47.50;101896.00;6190286;28;20232;-71
2023/06/12 07:16:20;;;;;;;4.40;3.42;;;;;;;22.99;47.85;101894.91;6192260;28;20324;-76
2023/06/12 07:19:43;;;;;;;3.67;3.38;;;;;;;22.99;47.14;101897.66;6201038;28;20253;-72
2023/06/12 07:23:04;;;;;;;6.72;3.88;;;;;;;23.09;47.62;101894.63;6198651;28;20227;-75
2023/06/12 07:26:27;;;;;;;3.10;2.80;;;;;;;23.36;46.12;101899.41;6190299;28;20233;-73
2023/06/12 07:29:49;;;;;;;6.55;3.97;;;;;;;23.42;46.37;101909.66;6189753;28;20233;-75
2023/06/12 07:33:11;;;;;;;7.65;3.50;;;;;;;23.86;46.28;101909.47;6213337;28;20256;-72
2023/06/12 07:36:35;;;;;;;4.68;3.80;;;;;;;24.14;45.75;101907.59;6183439;28;20597;-73
2023/06/12 07:39:56;;;;;;;4.88;4.00;;;;;;;24.22;45.70;101907.47;6195012;28;20626;-75
2023/06/12 07:43:19;;;;;;;6.40;3.40;;;;;;;24.31;44.70;101911.78;6199570;28;22720;-78
2023/06/12 07:46:42;;;;;;;4.68;3.63;;;;;;;24.02;44.10;101911.94;6200259;28;20237;-79
2023/06/12 07:50:03;;;;;;;6.38;3.30;;;;;;;24.14;42.68;101906.75;6216310;28;20315;-76
2023/06/12 07:53:27;;;;;;;5.57;3.38;;;;;;;24.34;44.02;101910.53;6204265;28;20318;-74
2023/06/12 07:56:50;;;;;;;4.13;3.42;;;;;;;24.18;42.88;101917.19;6199039;28;20233;-76
2023/06/12 08:00:14;;;;;;;4.25;3.10;;;;;;;24.23;42.62;101911.06;6177121;28;20233;-76
2023/06/12 08:03:42;;;;;;;5.82;3.80;;;;;;;24.52;42.72;101910.84;6211043;28;20596;-72
2023/06/12 08:07:04;;;;;;;5.97;3.38;;;;;;;24.57;42.33;101909.19;6194689;28;20434;-74
2023/06/12 08:10:26;;;;;;;4.55;3.15;;;;;;;24.35;42.06;101921.34;6201422;28;20237;-71
2023/06/12 08:13:47;;;;;;;3.53;3.22;;;;;;;24.50;42.04;101910.22;6205745;28;20243;-73
2023/06/12 08:17:11;;;;;;;3.83;3.50;;;;;;;24.65;42.25;101908.19;6202678;28;20237;-71
2023/06/12 08:20:32;;;;;;;3.95;3.05;;;;;;;24.79;42.24;101910.00;6198587;28;20312;-70
2023/06/12 08:23:54;;;;;;;4.72;3.85;;;;;;;24.71;42.13;101910.13;6211819;28;20265;-73
2023/06/12 08:27:16;;;;;;;4.93;3.47;;;;;;;24.84;42.29;101912.16;6189387;28;20236;-70
2023/06/12 08:30:37;;;;;;;4.05;3.75;;;;;;;25.24;42.01;101911.28;6214655;28;20237;-69
2023/06/12 08:33:59;;;;;;;7.45;3.70;;;;;;;24.99;41.03;101919.22;6205675;28;20240;-72
2023/06/12 08:37:21;;;;;;;3.42;3.10;;;;;;;24.90;41.40;101916.84;6184045;28;20286;-71
2023/06/12 08:40:42;;;;;;;5.40;3.72;;;;;;;25.11;41.41;101911.22;6212469;28;20229;-71
2023/06/12 08:44:04;;;;;;;3.67;3.35;;;;;;;25.57;40.65;101908.66;6205189;28;20322;-73
2023/06/12 08:47:37;;;;;;;4.85;3.30;;;;;;;25.59;40.52;101904.63;6179527;28;20235;-73
2023/06/12 08:51:00;;;;;;;3.83;3.35;;;;;;;25.89;39.88;101905.91;6213473;28;22155;-72
2023/06/12 08:54:22;;;;;;;2.90;2.67;;;;;;;25.94;39.32;101905.28;6213575;28;20251;-72
2023/06/12 08:57:43;;;;;;;4.20;3.05;;;;;;;25.94;39.88;101914.44;6197017;28;20275;-71
2023/06/12 09:01:06;;;;;;;2.50;2.30;;;;;;;25.81;39.55;101905.28;6195541;28;20224;-72
2023/06/12 09:04:37;;;;;;;5.05;3.38;;;;;;;26.25;39.52;101905.53;6207936;28;20259;-72
2023/06/12 09:08:00;;;;;;;3.50;3.20;;;;;;;26.23;39.23;101909.56;6190598;28;20263;-72
2023/06/12 09:11:21;;;;;;;4.40;3.40;;;;;;;26.30;39.00;101914.06;6204130;28;20320;-73
2023/06/12 09:14:44;;;;;;;2.40;2.17;;;;;;;26.62;38.92;101902.06;6216289;28;20237;-73
2023/06/12 09:18:10;;;;;;;5.53;3.03;;;;;;;26.72;37.41;101904.44;6195943;28;20742;-71
2023/06/12 09:21:31;;;;;;;3.33;2.88;;;;;;;26.71;37.00;101900.78;6200633;28;20340;-72
2023/06/12 09:24:56;;;;;;;6.50;3.47;;;;;;;26.59;37.32;101907.19;6214271;28;20237;-73
2023/06/12 09:28:23;;;;;;;2.97;2.67;;;;;;;26.25;36.86;101907.44;6203589;28;20628;-72
2023/06/12 09:31:50;;;;;;;3.20;2.90;;;;;;;26.65;37.34;101896.13;6196547;28;20709;-72
2023/06/12 09:35:12;;;;;;;4.75;3.47;;;;;;;26.42;37.03;101909.56;6186345;28;20767;-72
2023/06/12 09:38:34;;;;;;;3.47;2.95;;;;;;;26.24;37.56;101894.69;6206488;28;20228;-72
2023/06/12 09:42:00;;;;;;;6.55;3.72;;;;;;;26.91;37.28;101895.22;6198907;28;20237;-73
2023/06/12 09:45:23;;;;;;;4.03;2.97;;;;;;;26.83;36.06;101901.84;6200244;28;20300;-72
2023/06/12 09:48:45;;;;;;;3.83;2.92;;;;;;;26.85;35.91;101901.59;6213343;28;20236;-72
2023/06/12 09:52:06;;;;;;;3.75;2.50;;;;;;;26.83;36.19;101900.97;6197088;28;20236;-72
2023/06/12 09:55:31;;;;;;;3.80;3.13;;;;;;;27.22;34.73;101908.28;6197895;28;20239;-72
2023/06/12 09:58:54;;;;;;;4.72;4.32;;;;;;;27.26;33.83;101895.69;6217466;28;20235;-72
2023/06/12 10:02:17;;;;;;;6.82;3.70;;;;;;;27.31;33.30;101904.19;6192408;28;20260;-71
2023/06/12 10:05:41;;;;;;;3.50;2.45;;;;;;;27.09;33.63;101903.66;6214293;28;20244;-71
2023/06/12 10:09:03;;;;;;;2.90;2.25;;;;;;;27.19;33.20;101908.72;6208316;28;20484;-71
2023/06/12 10:12:25;;;;;;;3.45;2.90;;;;;;;26.92;33.68;101900.53;6189251;28;20229;-70
2023/06/12 10:15:48;;;;;;;5.15;2.42;;;;;;;27.08;33.87;101887.28;6210348;28;20234;-72
2023/06/12 10:19:12;;;;;;;3.35;2.72;;;;;;;27.51;33.50;101891.97;6222718;28;20235;-72
2023/06/12 10:22:33;;;;;;;2.88;2.65;;;;;;;27.95;33.02;101887.41;6181285;28;20262;-72
2023/06/12 10:25:57;;;;;;;2.47;2.28;;;;;;;27.54;33.44;101901.75;6215065;28;20233;-72
2023/06/12 10:29:28;;;;;;;5.45;4.95;;;;;;;27.68;33.66;101895.06;6214948;28;20223;-72
2023/06/12 10:32:50;;;;;;;4.70;2.95;;;;;;;27.97;32.78;101882.50;6192288;28;20255;-72
2023/06/12 10:36:13;;;;;;;6.72;3.45;;;;;;;28.07;32.94;101888.38;6211592;28;20245;-72
2023/06/12 10:39:34;;;;;;;4.78;3.13;;;;;;;28.06;32.78;101893.06;6213645;28;20318;-73
2023/06/12 10:43:02;;;;;;;2.58;2.40;;;;;;;28.19;32.28;101881.00;6193840;28;20236;-72
2023/06/12 10:46:23;;;;;;;3.42;2.63;;;;;;;28.28;32.46;101885.22;6201995;28;20233;-72
2023/06/12 10:49:59;;;;;;;3.92;2.47;;;;;;;27.54;32.18;101891.50;6210579;28;20237;-71
2023/06/12 10:53:24;;;;;;;4.00;3.20;;;;;;;27.48;32.01;101883.25;6201551;28;20243;-73
2023/06/12 10:57:03;;;;;;;2.83;2.58;;;;;;;28.09;32.31;101886.22;6197765;28;20379;-72
2023/06/12 11:00:29;;;;;;;4.28;2.50;;;;;;;28.06;31.49;101870.06;6179645;28;20767;-69
2023/06/12 11:03:51;;;;;;;3.05;2.47;;;;;;;27.78;30.83;101872.38;6208019;28;20235;-70
2023/06/12 11:07:16;;;;;;;3.17;2.88;;;;;;;28.11;31.24;101879.38;6177954;28;20237;-73
2023/06/12 11:10:39;;;;;;;2.15;1.95;;;;;;;27.97;31.02;101871.41;6219663;28;20245;-71
2023/06/12 11:14:02;;;;;;;3.10;2.75;;;;;;;27.82;30.28;101863.41;6212908;28;20244;-69
2023/06/12 11:17:23;;;;;;;2.53;2.13;;;;;;;27.61;30.49;101877.63;6186885;28;20248;-76
2023/06/12 11:20:44;;;;;;;3.35;2.45;;;;;;;28.00;30.81;101871.78;6216480;28;20753;-72
2023/06/12 11:24:08;;;;;;;3.83;2.92;;;;;;;28.00;30.14;101880.13;6212758;28;20240;-72
2023/06/12 11:27:30;;;;;;;1.98;1.88;;;;;;;28.11;29.88;101865.53;6191659;28;20314;-73
2023/06/12 11:30:53;;;;;;;2.97;2.20;;;;;;;28.44;29.97;101881.84;6220872;28;20237;-71
2023/06/12 11:34:14;;;;;;;3.67;2.30;;;;;;;28.47;29.99;101865.56;6220936;28;20239;-73
2023/06/12 11:37:37;;;;;;;4.28;3.97;;;;;;;29.03;29.93;101872.84;6198588;28;20247;-70
2023/06/12 11:41:00;;;;;;;2.60;2.38;;;;;;;29.41;29.65;101872.59;6202189;28;20237;-75
2023/06/12 11:44:21;;;;;;;3.97;2.70;;;;;;;29.63;29.18;101879.28;6218509;28;20232;-75
2023/06/12 11:47:43;;;;;;;4.13;3.83;;;;;;;29.24;28.85;101864.06;6192806;28;20548;-73
2023/06/12 11:51:05;;;;;;;3.17;2.40;;;;;;;29.36;28.60;101855.75;6203289;28;20248;-74
2023/06/12 11:54:26;;;;;;;2.97;2.33;;;;;;;29.45;28.67;101857.13;6221236;28;20236;-75
2023/06/12 11:57:50;;;;;;;3.00;2.35;;;;;;;29.55;28.76;101840.72;6198788;28;20235;-75
2023/06/12 12:01:13;;;;;;;2.17;1.95;;;;;;;29.23;29.16;101850.41;6202384;28;20234;-77
2023/06/12 12:04:37;;;;;;;2.20;2.00;;;;;;;28.80;28.66;101853.28;6218447;28;20536;-70
2023/06/12 12:07:59;;;;;;;5.75;5.13;;;;;;;28.96;28.52;101830.44;6189081;28;20240;-74
2023/06/12 12:11:22;;;;;;;2.35;2.15;;;;;;;28.78;29.48;101845.19;6197305;28;20257;-72
2023/06/12 12:14:50;;;;;;;3.65;2.15;;;;;;;28.90;29.41;101839.69;6218676;28;20249;-74
2023/06/12 12:18:12;;;;;;;3.53;2.38;;;;;;;29.15;28.26;101830.19;6205402;28;20228;-74
2023/06/12 12:21:33;;;;;;;2.42;2.20;;;;;;;29.76;28.62;101838.28;6194119;28;20257;-77
2023/06/12 12:24:54;;;;;;;3.55;2.53;;;;;;;30.20;28.30;101833.22;6216659;28;20229;-76
2023/06/12 12:28:15;;;;;;;3.42;2.55;;;;;;;30.21;27.88;101816.28;6181740;28;20228;-75
2023/06/12 12:31:38;;;;;;;2.40;2.10;;;;;;;30.81;27.94;101814.03;6196479;28;20229;-71
2023/06/12 12:34:59;;;;;;;2.50;1.80;;;;;;;31.05;27.23;101803.69;6215449;28;20232;-72
2023/06/12 12:38:19;;;;;;;2.60;2.40;;;;;;;30.35;27.21;101809.44;6202754;28;20256;-72
2023/06/12 12:41:40;;;;;;;2.40;2.22;;;;;;;30.67;28.13;101799.53;6200293;28;20287;-75
2023/06/12 12:45:01;;;;;;;2.00;1.90;;;;;;;30.62;27.31;101807.78;6207115;28;20229;-76
2023/06/12 12:48:24;;;;;;;2.65;2.30;;;;;;;30.57;26.75;101804.03;6207120;28;20232;-73
2023/06/12 12:51:45;;;;;;;2.78;2.33;;;;;;;31.05;27.38;101812.03;6210538;28;21491;-72
2023/06/12 12:55:07;;;;;;;3.97;2.55;;;;;;;31.64;27.32;101802.31;6227203;28;20524;-71
2023/06/12 12:58:29;;;;;;;7.15;2.80;;;;;;;30.89;26.61;101799.75;6200779;28;20237;-73
2023/06/12 13:01:50;;;;;;;2.60;1.98;;;;;;;30.97;27.58;101787.34;6199260;28;20236;-77
2023/06/12 13:05:14;;;;;;;6.03;3.08;;;;;;;29.83;27.25;101802.84;6186328;28;20316;-73
2023/06/12 13:08:36;;;;;;;4.60;2.58;;;;;;;30.60;27.35;101800.78;6194173;28;20766;-72
2023/06/12 13:11:56;;;;;;;2.88;2.55;;;;;;;30.67;27.65;101795.91;6193989;28;20500;-70
2023/06/12 13:15:17;;;;;;;3.70;2.03;;;;;;;30.79;26.27;101788.38;6196803;28;20241;-71
2023/06/12 13:18:38;;;;;;;3.10;2.28;;;;;;;30.59;26.71;101786.00;6201319;28;20241;-72
2023/06/12 13:22:01;;;;;;;2.72;2.53;;;;;;;33.25;25.29;101780.34;6189010;28;20252;-73
2023/06/12 13:25:25;;;;;;;2.38;2.13;;;;;;;35.05;23.65;101781.84;6195005;28;20242;-75
2023/06/12 13:28:46;;;;;;;3.47;2.40;;;;;;;36.16;22.64;101765.94;6195381;28;20319;-74
2023/06/12 13:32:07;;;;;;;3.20;2.42;;;;;;;37.04;21.77;101766.19;6186588;28;20305;-74
2023/06/12 13:35:29;;;;;;;4.53;2.45;;;;;;;36.97;22.06;101763.69;6190298;28;20233;-73
2023/06/12 13:38:51;;;;;;;2.80;2.42;;;;;;;37.33;21.97;101770.78;6187317;28;20662;-74
2023/06/12 13:42:12;;;;;;;4.07;2.55;;;;;;;36.39;22.35;101761.66;6195166;28;20637;-72
2023/06/12 13:45:34;;;;;;;2.78;2.58;;;;;;;36.69;21.94;101764.38;6189786;28;20241;-72
2023/06/12 13:48:55;;;;;;;2.30;2.10;;;;;;;35.18;22.30;101765.34;6191456;28;20241;-72
2023/06/12 13:52:16;;;;;;;2.63;2.42;;;;;;;32.64;23.88;101766.75;6189888;28;21839;-71
2023/06/12 13:55:38;;;;;;;3.17;2.15;;;;;;;33.87;24.17;101771.38;6188436;28;20301;-73
2023/06/12 13:58:59;;;;;;;4.80;2.05;;;;;;;34.36;23.62;101764.47;6187555;28;20236;-73
2023/06/12 14:02:20;;;;;;;5.00;2.30;;;;;;;33.16;23.73;101747.50;6190184;28;20626;-75
2023/06/12 14:05:41;;;;;;;5.72;3.00;;;;;;;32.75;24.16;101766.59;6186378;28;20769;-77
2023/06/12 14:09:03;;;;;;;3.33;2.70;;;;;;;32.00;25.30;101762.75;6184139;28;20229;-76
2023/06/12 14:12:25;;;;;;;4.13;3.60;;;;;;;32.26;25.10;101760.06;6199026;28;21433;-75
2023/06/12 14:15:46;;;;;;;3.53;2.30;;;;;;;31.91;25.53;101758.69;6186595;28;20237;-73
2023/06/12 14:19:08;;;;;;;3.15;2.42;;;;;;;31.68;25.23;101754.13;6191566;28;20634;-80
2023/06/12 14:22:30;;;;;;;3.08;2.22;;;;;;;32.37;25.62;101755.47;6182025;28;20229;-74
2023/06/12 14:25:51;;;;;;;2.83;2.63;;;;;;;32.49;24.96;101756.22;6182797;28;20267;-78
2023/06/12 14:29:13;;;;;;;2.95;2.42;;;;;;;32.47;24.97;101750.06;6184061;28;20237;-73
2023/06/12 14:32:34;;;;;;;3.35;2.42;;;;;;;32.26;24.79;101748.91;6189207;28;20571;-72
2023/06/12 14:35:55;;;;;;;4.50;2.83;;;;;;;32.38;24.26;101756.31;6191592;28;20245;-73
2023/06/12 14:39:16;;;;;;;3.65;1.80;;;;;;;32.05;24.44;101751.66;6184456;28;20240;-74
2023/06/12 14:42:36;;;;;;;3.08;2.55;;;;;;;32.11;24.38;101750.63;6181580;28;20316;-73
2023/06/12 14:45:58;;;;;;;3.60;2.42;;;;;;;32.25;24.61;101749.19;6189332;28;20233;-76
2023/06/12 14:49:19;;;;;;;3.00;2.55;;;;;;;32.59;24.27;101755.50;6193703;28;20237;-71
2023/06/12 14:52:40;;;;;;;4.63;3.05;;;;;;;32.17;24.77;101750.44;6190964;28;20229;-72
2023/06/12 14:56:02;;;;;;;2.83;2.17;;;;;;;32.66;24.89;101744.97;6190107;28;20237;-70
2023/06/12 14:59:23;;;;;;;2.25;2.00;;;;;;;32.25;24.58;101740.81;6191905;28;20695;-71
2023/06/12 15:02:45;;;;;;;2.00;1.90;;;;;;;32.44;25.02;101742.16;6186715;28;20241;-73
2023/06/12 15:06:06;;;;;;;3.67;1.90;;;;;;;32.55;25.47;101754.31;6182998;28;20249;-70
2023/06/12 15:09:27;;;;;;;3.33;2.35;;;;;;;32.52;25.99;101741.75;6186401;28;20233;-72
2023/06/12 15:12:48;;;;;;;3.60;2.60;;;;;;;32.82;24.45;101744.88;6193913;28;20232;-73
2023/06/12 15:16:08;;;;;;;2.72;2.42;;;;;;;32.67;23.90;101735.50;6194516;28;20237;-74
2023/06/12 15:19:31;;;;;;;5.72;2.40;;;;;;;32.70;23.30;101730.22;6186752;28;20244;-72
2023/06/12 15:22:52;;;;;;;2.83;2.60;;;;;;;32.54;23.90;101741.47;6184206;28;20260;-72
2023/06/12 15:26:13;;;;;;;3.75;2.28;;;;;;;32.61;24.11;101729.00;6192340;28;20599;-71
2023/06/12 15:29:34;;;;;;;1.95;1.75;;;;;;;32.75;24.26;101733.06;6193140;28;20579;-72
2023/06/12 15:32:55;;;;;;;3.88;2.47;;;;;;;31.96;23.86;101728.91;6197084;28;20232;-72
2023/06/12 15:36:17;;;;;;;2.60;2.40;;;;;;;31.68;23.95;101723.44;6192987;28;20237;-72
2023/06/12 15:39:38;;;;;;;3.72;2.08;;;;;;;32.00;23.79;101723.69;6191690;28;20233;-72